Time;durP1;ratioP1;P1;durP2;ratioP2;P2;SDS_P1;SDS_P2;PMS_P1;PMS_P2;Temp;Humidity;BMP_temperature;BMP_pressure;BME280_temperature;BME280_humidity;BME280_pressure;Samples;Min_cycle;Max_cycle;Signal;HPM_P1;HPM_P2
2022/07/15 00:01:38;;;;;;;8.85;5.40;;;;;;;25.52;83.07;98258.72;5057917;28;20427;-74
2022/07/15 00:04:12;;;;;;;6.90;4.72;;;;;;;25.14;83.51;98254.16;5059813;28;20507;-75
2022/07/15 00:06:41;;;;;;;7.90;5.10;;;;;;;25.05;83.47;98261.28;5032041;28;20050;-74
2022/07/15 00:09:07;;;;;;;5.25;4.75;;;;;;;25.03;83.74;98254.53;5062446;28;20069;-73
2022/07/15 00:11:33;;;;;;;8.20;5.57;;;;;;;25.15;83.64;98261.22;5080015;28;20421;-73
2022/07/15 00:13:59;;;;;;;9.40;4.88;;;;;;;25.08;83.69;98274.31;5046146;28;20138;-73
2022/07/15 00:16:25;;;;;;;6.88;4.50;;;;;;;24.88;82.96;98266.31;5062436;28;20471;-74
2022/07/15 00:18:52;;;;;;;7.22;5.47;;;;;;;25.05;83.07;98261.28;5084846;28;20077;-73
2022/07/15 00:21:20;;;;;;;4.88;4.45;;;;;;;25.25;82.72;98260.34;5063045;28;20475;-73
2022/07/15 00:23:45;;;;;;;5.47;4.43;;;;;;;25.02;82.84;98270.00;5046396;28;20040;-73
2022/07/15 00:26:11;;;;;;;5.35;4.05;;;;;;;25.05;82.43;98268.66;5061453;28;20406;-72
2022/07/15 00:28:37;;;;;;;8.75;4.20;;;;;;;25.03;82.00;98268.13;5061435;28;20039;-71
2022/07/15 00:31:03;;;;;;;6.25;4.13;;;;;;;25.02;82.44;98270.00;5062776;28;20530;-71
2022/07/15 00:33:30;;;;;;;8.52;3.65;;;;;;;24.69;81.61;98271.59;5063072;28;20491;-74
2022/07/15 00:35:55;;;;;;;5.50;3.67;;;;;;;25.02;81.94;98271.94;5078886;28;20043;-68
2022/07/15 00:38:21;;;;;;;5.15;4.15;;;;;;;25.14;81.81;98273.16;5046046;28;20047;-69
2022/07/15 00:40:49;;;;;;;6.18;4.05;;;;;;;25.44;81.75;98272.13;5062218;28;20086;-69
2022/07/15 00:43:16;;;;;;;7.35;3.50;;;;;;;25.40;82.05;98274.59;5079254;28;20150;-69
2022/07/15 00:45:43;;;;;;;4.45;3.60;;;;;;;25.27;82.43;98271.69;5078815;28;20047;-69
2022/07/15 00:48:10;;;;;;;5.95;3.58;;;;;;;25.30;82.56;98257.53;5062009;28;20043;-69
2022/07/15 00:50:36;;;;;;;11.15;4.20;;;;;;;25.12;82.72;98269.94;5078707;28;20040;-69
2022/07/15 00:53:07;;;;;;;7.35;3.50;;;;;;;25.52;81.83;98275.03;5062199;28;20164;-72
2022/07/15 00:55:38;;;;;;;4.03;3.63;;;;;;;25.70;81.82;98277.03;5079427;28;20115;-72
2022/07/15 00:58:04;;;;;;;6.03;3.50;;;;;;;25.43;81.83;98268.59;5079972;28;20044;-71
2022/07/15 01:00:31;;;;;;;5.82;4.15;;;;;;;25.46;82.00;98275.38;5079233;28;20043;-73
2022/07/15 01:03:00;;;;;;;6.60;4.20;;;;;;;25.28;82.01;98276.06;5095626;28;20498;-73
2022/07/15 01:05:27;;;;;;;5.28;3.88;;;;;;;25.14;81.69;98266.94;5062235;28;20046;-73
2022/07/15 01:07:53;;;;;;;4.20;3.42;;;;;;;24.60;79.92;98286.03;5045836;28;20042;-71
2022/07/15 01:10:21;;;;;;;4.00;3.60;;;;;;;25.12;81.17;98275.38;5062170;28;20068;-70
2022/07/15 01:12:49;;;;;;;7.50;3.60;;;;;;;24.85;80.26;98296.75;5079253;28;20184;-70
2022/07/15 01:15:18;;;;;;;6.28;3.70;;;;;;;24.99;80.06;98294.25;5095191;28;20477;-70
2022/07/15 01:17:45;;;;;;;6.80;3.50;;;;;;;25.26;79.65;98284.50;5045197;28;20043;-70
2022/07/15 01:20:13;;;;;;;5.28;3.78;;;;;;;25.13;78.69;98270.75;5078598;28;20052;-70
2022/07/15 01:22:52;;;;;;;5.88;3.67;;;;;;;25.11;75.55;98311.78;5097828;28;20058;-70
2022/07/15 01:25:20;;;;;;;5.78;4.07;;;;;;;25.43;74.36;98314.78;5078852;28;20077;-70
2022/07/15 01:27:47;;;;;;;6.15;4.05;;;;;;;24.96;73.16;98311.91;5062000;28;20199;-70
2022/07/15 01:30:20;;;;;;;8.45;3.78;;;;;;;25.17;72.22;98305.22;5064003;28;20608;-70
2022/07/15 01:32:48;;;;;;;7.43;4.13;;;;;;;25.52;68.21;98318.56;5045248;28;20032;-70
2022/07/15 01:35:15;;;;;;;5.53;3.80;;;;;;;26.05;63.94;98319.38;5060488;28;20044;-71
2022/07/15 01:37:44;;;;;;;7.10;4.30;;;;;;;26.63;61.46;98328.19;5060429;28;20054;-70
2022/07/15 01:40:11;;;;;;;4.82;3.95;;;;;;;26.66;60.16;98331.19;5042396;28;20526;-71
2022/07/15 01:42:39;;;;;;;4.75;3.70;;;;;;;26.40;59.68;98333.38;5059123;28;20040;-70
2022/07/15 01:45:05;;;;;;;7.47;4.25;;;;;;;26.47;59.16;98327.59;5042575;28;20043;-71
2022/07/15 01:47:34;;;;;;;9.10;4.13;;;;;;;26.30;59.30;98341.69;5042527;28;20055;-71
2022/07/15 01:50:04;;;;;;;5.57;4.22;;;;;;;26.58;59.02;98336.44;5060660;28;20040;-71
2022/07/15 01:52:49;;;;;;;10.88;3.88;;;;;;;26.29;58.43;98340.03;5051782;28;20581;-70
2022/07/15 01:55:15;;;;;;;6.78;4.05;;;;;;;26.49;58.44;98341.72;5044323;28;20039;-71
2022/07/15 01:57:41;;;;;;;6.95;4.03;;;;;;;26.64;57.86;98333.38;5061438;28;20051;-71
2022/07/15 02:00:12;;;;;;;6.75;3.90;;;;;;;26.93;57.28;98335.97;5061569;28;20036;-71
2022/07/15 02:02:46;;;;;;;7.65;4.07;;;;;;;26.81;56.63;98333.69;5064440;28;20047;-71
2022/07/15 02:05:15;;;;;;;7.82;5.18;;;;;;;26.65;56.98;98335.00;5045541;28;20043;-71
2022/07/15 02:07:41;;;;;;;7.88;4.28;;;;;;;26.63;56.93;98334.50;5095246;28;20376;-72
2022/07/15 02:10:11;;;;;;;5.60;4.80;;;;;;;26.46;56.96;98323.25;5045305;28;20414;-72
2022/07/15 02:12:41;;;;;;;7.53;4.22;;;;;;;26.60;56.21;98340.47;5045357;28;20043;-72
2022/07/15 02:15:08;;;;;;;10.15;4.00;;;;;;;26.94;55.69;98351.22;5061341;28;20054;-72
2022/07/15 02:17:41;;;;;;;4.13;3.67;;;;;;;26.91;55.06;98349.88;5046195;28;20558;-71
2022/07/15 02:20:09;;;;;;;8.00;3.45;;;;;;;26.95;53.93;98359.09;5060770;28;20483;-71
2022/07/15 02:22:37;;;;;;;5.55;3.58;;;;;;;26.81;53.93;98368.28;5060569;28;20044;-72
2022/07/15 02:25:04;;;;;;;5.05;4.35;;;;;;;26.77;54.39;98364.53;5060993;28;20047;-73
2022/07/15 02:27:31;;;;;;;7.55;3.97;;;;;;;26.55;46.78;98399.66;5093400;28;20050;-74
2022/07/15 02:29:56;;;;;;;10.20;4.13;;;;;;;26.45;47.71;98376.88;5112633;28;20035;-71
2022/07/15 02:32:24;;;;;;;4.75;3.50;;;;;;;26.39;47.23;98367.16;5061112;28;20137;-71
2022/07/15 02:34:51;;;;;;;4.70;3.50;;;;;;;26.41;46.91;98364.97;5060765;28;20048;-70
2022/07/15 02:37:17;;;;;;;6.22;3.75;;;;;;;26.31;47.19;98356.91;5043655;28;20047;-70
2022/07/15 02:39:43;;;;;;;4.97;3.35;;;;;;;26.19;46.69;98347.50;5076436;28;20040;-70
2022/07/15 02:42:09;;;;;;;7.68;3.33;;;;;;;26.18;47.26;98348.63;5059847;28;20044;-70
2022/07/15 02:44:38;;;;;;;4.97;3.40;;;;;;;26.09;46.66;98348.44;5093429;28;20060;-70
2022/07/15 02:47:05;;;;;;;6.55;3.40;;;;;;;26.12;46.98;98345.13;5044374;28;20451;-71
2022/07/15 02:49:30;;;;;;;5.47;3.38;;;;;;;26.10;46.77;98352.81;5060963;28;20096;-72
2022/07/15 02:51:58;;;;;;;3.22;2.92;;;;;;;26.24;46.72;98340.13;5060140;28;20047;-71
2022/07/15 02:54:28;;;;;;;5.70;3.50;;;;;;;26.20;46.30;98344.50;5061986;28;20258;-71
2022/07/15 02:56:54;;;;;;;6.32;3.20;;;;;;;26.03;46.78;98363.19;5044575;28;20066;-71
2022/07/15 02:59:20;;;;;;;5.90;3.50;;;;;;;25.93;47.07;98365.19;5077404;28;20472;-71
2022/07/15 03:01:50;;;;;;;4.50;3.70;;;;;;;26.06;47.14;98367.28;5062539;28;20035;-71
2022/07/15 03:04:16;;;;;;;6.63;3.45;;;;;;;26.15;46.21;98358.19;5060663;28;20048;-71
2022/07/15 03:06:42;;;;;;;5.93;3.47;;;;;;;26.15;46.90;98360.09;5059973;28;20069;-70
2022/07/15 03:09:10;;;;;;;9.18;3.33;;;;;;;26.18;46.92;98354.06;5043598;28;20470;-71
2022/07/15 03:11:37;;;;;;;3.40;3.10;;;;;;;26.37;46.94;98347.56;5075888;28;20051;-73
2022/07/15 03:14:04;;;;;;;3.63;3.25;;;;;;;26.11;46.59;98369.91;5059805;28;20039;-73
2022/07/15 03:16:31;;;;;;;8.38;3.13;;;;;;;26.06;46.00;98376.22;5060671;28;20040;-72
2022/07/15 03:18:58;;;;;;;4.20;2.72;;;;;;;26.15;47.40;98382.69;5043271;28;20049;-71
2022/07/15 03:21:24;;;;;;;5.13;3.00;;;;;;;26.41;47.32;98384.03;5059819;28;20499;-72
2022/07/15 03:23:50;;;;;;;4.05;2.80;;;;;;;26.62;46.39;98384.56;5042810;28;20043;-72
2022/07/15 03:26:16;;;;;;;10.02;3.00;;;;;;;26.61;46.51;98384.84;5057732;28;20504;-72
2022/07/15 03:28:42;;;;;;;5.80;2.95;;;;;;;26.68;46.43;98391.59;5059868;28;20048;-72
2022/07/15 03:31:08;;;;;;;8.05;2.70;;;;;;;26.80;45.95;98393.91;5060094;28;20062;-73
2022/07/15 03:33:34;;;;;;;25.27;16.02;;;;;;;26.90;46.09;98399.22;5060174;28;20044;-73
2022/07/15 03:36:00;;;;;;;6.28;4.05;;;;;;;27.18;46.07;98399.09;5112018;28;20051;-71
2022/07/15 03:38:30;;;;;;;6.28;2.78;;;;;;;27.23;45.61;98382.66;5077409;28;20052;-71
2022/07/15 03:40:57;;;;;;;5.57;3.00;;;;;;;27.41;45.59;98398.25;5063569;28;20434;-70
2022/07/15 03:43:26;;;;;;;8.13;2.10;;;;;;;27.35;44.64;98388.53;5063808;28;20044;-70
2022/07/15 03:45:53;;;;;;;2.85;2.40;;;;;;;27.51;45.05;98383.59;5063512;28;20035;-71
2022/07/15 03:48:20;;;;;;;4.00;2.00;;;;;;;27.25;44.66;98398.72;5080300;28;20054;-70
2022/07/15 03:50:47;;;;;;;3.22;1.95;;;;;;;27.26;45.72;98397.66;5047273;28;20155;-71
2022/07/15 03:53:13;;;;;;;5.57;2.00;;;;;;;27.21;44.81;98392.25;5064050;28;20542;-71
2022/07/15 03:55:39;;;;;;;3.50;2.30;;;;;;;27.54;45.33;98392.00;5064031;28;20044;-70
2022/07/15 03:58:07;;;;;;;4.63;2.00;;;;;;;27.22;44.55;98393.84;5046505;28;20518;-70
2022/07/15 04:00:34;;;;;;;4.40;2.17;;;;;;;27.12;44.83;98381.19;5063257;28;20036;-71
2022/07/15 04:02:59;;;;;;;4.90;2.28;;;;;;;27.17;45.00;98402.13;5063138;28;20414;-71
2022/07/15 04:05:25;;;;;;;5.43;2.33;;;;;;;27.20;45.23;98407.00;5063267;28;20054;-72
2022/07/15 04:07:51;;;;;;;8.85;2.40;;;;;;;27.18;44.88;98412.72;5062743;28;20464;-71
2022/07/15 04:10:17;;;;;;;3.80;2.60;;;;;;;27.17;44.53;98413.81;5063055;28;20059;-70
2022/07/15 04:12:43;;;;;;;5.72;2.20;;;;;;;27.20;44.94;98415.16;5046663;28;20043;-71
2022/07/15 04:15:09;;;;;;;8.02;2.63;;;;;;;27.24;45.09;98402.56;5096663;28;20035;-71
2022/07/15 04:17:35;;;;;;;7.75;4.45;;;;;;;27.12;44.67;98383.09;5079708;28;20081;-70
2022/07/15 04:20:03;;;;;;;6.22;3.00;;;;;;;27.22;44.58;98416.47;5096392;28;20075;-71
2022/07/15 04:22:30;;;;;;;6.30;2.30;;;;;;;27.09;44.68;98403.59;5062805;28;20035;-71
2022/07/15 04:24:56;;;;;;;4.63;3.03;;;;;;;27.28;45.08;98418.06;5079531;28;20051;-72
2022/07/15 04:27:23;;;;;;;6.53;2.42;;;;;;;27.31;44.82;98425.66;5078829;28;20138;-72
2022/07/15 04:29:49;;;;;;;5.05;2.42;;;;;;;27.17;43.99;98426.66;5079522;28;20047;-72
2022/07/15 04:32:16;;;;;;;3.55;2.13;;;;;;;27.06;43.83;98423.25;5046055;28;20051;-72
2022/07/15 04:34:48;;;;;;;3.67;2.10;;;;;;;27.34;44.35;98446.06;5047286;28;20055;-72
2022/07/15 04:37:13;;;;;;;3.80;2.00;;;;;;;27.40;43.84;98442.97;5078565;28;20039;-72
2022/07/15 04:39:44;;;;;;;;;;;;;;;28.17;42.83;98467.94;5080124;28;20044;-70
2022/07/15 04:42:10;;;;;;;8.60;2.25;;;;;;;27.46;44.50;98460.06;5079267;28;19942;-70
2022/07/15 04:44:36;;;;;;;5.93;2.42;;;;;;;27.56;44.49;98473.53;5081110;28;20043;-71
2022/07/15 04:47:05;;;;;;;5.47;2.70;;;;;;;27.59;43.73;98464.78;5090710;28;20043;-70
2022/07/15 04:52:25;;;;;;;4.35;2.20;;;;;;;27.87;43.51;98474.72;5095434;28;20245;-72
2022/07/15 04:54:52;;;;;;;5.45;1.92;;;;;;;27.83;42.55;98479.16;5083694;28;20082;-71
2022/07/15 04:57:19;;;;;;;4.97;2.10;;;;;;;27.78;42.81;98484.66;5045105;28;20044;-71
2022/07/15 04:59:45;;;;;;;2.65;1.67;;;;;;;27.74;43.07;98486.34;5079172;28;20092;-71
2022/07/15 05:02:15;;;;;;;3.80;2.10;;;;;;;27.93;42.85;98489.91;5062753;28;20092;-71
2022/07/15 05:04:45;;;;;;;6.30;2.00;;;;;;;27.82;43.11;98489.25;5078930;28;20070;-74
2022/07/15 05:07:11;;;;;;;3.97;1.80;;;;;;;27.74;43.01;98478.16;5060491;28;20043;-74
2022/07/15 05:09:38;;;;;;;11.13;7.20;;;;;;;27.96;43.63;98483.84;5060503;28;20047;-74
2022/07/15 05:12:05;;;;;;;9.65;5.15;;;;;;;27.98;43.06;98485.16;5059883;28;20617;-74
2022/07/15 05:14:40;;;;;;;4.25;1.90;;;;;;;28.20;43.06;98486.47;5077587;28;20476;-72
2022/07/15 05:17:07;;;;;;;5.50;2.00;;;;;;;28.46;42.84;98463.03;5094519;28;20047;-74
2022/07/15 05:19:34;;;;;;;4.10;1.40;;;;;;;28.26;42.33;98447.03;5076637;28;20511;-74
2022/07/15 05:21:59;;;;;;;4.97;1.40;;;;;;;28.22;41.80;98454.19;5076801;28;20040;-73
2022/07/15 05:24:28;;;;;;;2.97;1.42;;;;;;;28.18;41.70;98458.66;5043796;28;20043;-74
2022/07/15 05:26:54;;;;;;;3.75;1.45;;;;;;;28.17;42.06;98452.34;5076985;28;20043;-74
2022/07/15 05:29:24;;;;;;;6.18;1.52;;;;;;;28.32;42.30;98460.31;5060404;28;20075;-74
2022/07/15 05:31:52;;;;;;;4.60;1.63;;;;;;;28.85;41.31;98460.66;5060649;28;20039;-74
2022/07/15 05:34:18;;;;;;;4.82;1.50;;;;;;;28.57;41.38;98446.19;5041311;28;20051;-74
2022/07/15 05:36:44;;;;;;;9.13;1.27;;;;;;;28.72;42.33;98453.28;5042728;28;20039;-73
2022/07/15 05:39:13;;;;;;;3.00;1.30;;;;;;;28.61;41.50;98452.69;5061072;28;20047;-71
2022/07/15 05:41:40;;;;;;;2.40;1.10;;;;;;;28.74;41.32;98454.59;5048608;28;20506;-70
2022/07/15 05:44:07;;;;;;;2.67;1.35;;;;;;;28.83;40.40;98450.03;5112659;28;20172;-75
2022/07/15 05:46:38;;;;;;;1.58;1.15;;;;;;;28.92;41.47;98448.19;5090576;28;20090;-76
2022/07/15 05:49:04;;;;;;;4.22;1.42;;;;;;;28.99;40.96;98459.53;5075848;28;20051;-76
2022/07/15 05:51:30;;;;;;;3.17;1.60;;;;;;;28.98;40.77;98432.50;5076648;27;20075;-74
2022/07/15 05:53:58;;;;;;;4.68;1.40;;;;;;;29.06;40.23;98465.41;5061767;28;20137;-75
2022/07/15 05:56:24;;;;;;;5.38;1.40;;;;;;;28.91;39.97;98459.41;5047827;28;20581;-75
2022/07/15 05:58:51;;;;;;;2.50;1.27;;;;;;;29.13;40.51;98452.16;5060840;28;20387;-75
2022/07/15 06:01:21;;;;;;;6.43;1.45;;;;;;;29.07;39.92;98460.78;5077269;27;20138;-75
2022/07/15 06:03:47;;;;;;;1.67;1.23;;;;;;;28.78;38.80;98454.78;5096906;27;20047;-75
2022/07/15 06:06:16;;;;;;;4.80;1.42;;;;;;;29.12;40.44;98457.94;5096645;27;20034;-74
2022/07/15 06:08:48;;;;;;;1.90;1.20;;;;;;;29.53;39.12;98447.69;5095941;27;20052;-74
2022/07/15 06:11:14;;;;;;;3.35;1.40;;;;;;;29.58;40.46;98462.03;5078456;27;20540;-74
2022/07/15 06:13:41;;;;;;;3.90;1.55;;;;;;;29.75;39.01;98460.63;5079291;27;20050;-76
2022/07/15 06:16:08;;;;;;;2.65;1.30;;;;;;;29.83;39.75;98443.44;5059313;28;20051;-79
2022/07/15 06:18:34;;;;;;;3.75;1.23;;;;;;;29.76;39.55;98445.78;5093199;28;20046;-78
2022/07/15 06:21:01;;;;;;;4.68;1.50;;;;;;;29.85;38.22;98447.47;5043526;28;20043;-77
2022/07/15 06:23:27;;;;;;;6.63;2.03;;;;;;;29.90;37.34;98449.28;5059548;28;20513;-76
2022/07/15 06:25:55;;;;;;;6.55;1.45;;;;;;;30.03;38.66;98443.72;5059617;28;20051;-76
2022/07/15 06:28:24;;;;;;;2.15;1.42;;;;;;;29.99;37.44;98439.19;5077312;28;20043;-77
2022/07/15 06:30:50;;;;;;;3.78;1.60;;;;;;;30.03;37.84;98432.78;5077208;28;20035;-79
2022/07/15 06:33:16;;;;;;;5.60;1.33;;;;;;;29.98;35.51;98454.00;5059898;28;20092;-76
2022/07/15 06:35:42;;;;;;;1.38;1.02;;;;;;;30.40;37.54;98434.31;5076125;28;20110;-76
2022/07/15 06:38:10;;;;;;;5.72;1.60;;;;;;;30.38;37.05;98442.03;5077798;28;20096;-76
2022/07/15 06:40:37;;;;;;;3.25;1.50;;;;;;;30.67;36.52;98437.66;5077406;28;20138;-76
2022/07/15 06:43:05;;;;;;;2.17;1.20;;;;;;;30.44;35.08;98424.34;5075602;28;20484;-76
2022/07/15 06:46:12;;;;;;;4.90;1.38;;;;;;;30.90;32.96;98449.34;5074491;28;20035;-77
2022/07/15 06:48:40;;;;;;;;;;;;;;;30.87;33.48;98428.88;5080059;28;20046;-77
2022/07/15 06:51:06;;;;;;;4.47;1.58;;;;;;;30.50;34.42;98447.72;5076790;28;19926;-77
2022/07/15 06:53:32;;;;;;;1.58;1.27;;;;;;;30.55;34.01;98453.06;5043904;28;20035;-81
2022/07/15 06:55:58;;;;;;;1.38;1.20;;;;;;;31.00;35.15;98455.34;5061886;28;20048;-77
2022/07/15 06:58:27;;;;;;;2.58;1.52;;;;;;;31.71;33.40;98450.44;5076791;28;20056;-76
2022/07/15 07:00:52;;;;;;;2.63;1.30;;;;;;;31.28;32.21;98464.13;5043419;28;20139;-76
2022/07/15 07:03:19;;;;;;;1.80;1.40;;;;;;;30.93;33.81;98467.91;5066280;27;20129;-74
2022/07/15 07:05:46;;;;;;;4.57;1.92;;;;;;;31.12;33.68;98462.97;5099685;27;20038;-80
2022/07/15 07:08:13;;;;;;;2.08;1.40;;;;;;;31.01;32.88;98469.88;5053169;27;20039;-75
2022/07/15 07:10:39;;;;;;;2.75;1.67;;;;;;;31.37;33.14;98464.19;5091254;28;20054;-74
2022/07/15 07:13:07;;;;;;;3.45;1.50;;;;;;;31.56;32.60;98481.94;5093763;28;20035;-73
2022/07/15 07:15:35;;;;;;;3.28;1.65;;;;;;;32.16;31.59;98460.78;5087823;28;20061;-75
2022/07/15 07:18:02;;;;;;;8.52;1.67;;;;;;;32.51;31.25;98465.06;5040469;28;20061;-74
2022/07/15 07:20:28;;;;;;;2.85;1.52;;;;;;;33.07;31.11;98469.38;5073281;28;20055;-73
2022/07/15 07:22:54;;;;;;;2.63;1.50;;;;;;;33.03;30.43;98481.38;5072292;28;20046;-72
2022/07/15 07:25:20;;;;;;;2.40;1.17;;;;;;;33.25;29.76;98476.38;5083386;28;20039;-74
2022/07/15 07:27:45;;;;;;;1.58;1.30;;;;;;;33.52;28.02;98486.09;5111713;28;20045;-74
2022/07/15 07:30:11;;;;;;;3.88;1.35;;;;;;;33.57;28.50;98477.63;5095239;28;20039;-71
2022/07/15 07:32:37;;;;;;;3.53;1.27;;;;;;;33.90;27.69;98498.63;5094616;28;20049;-74
2022/07/15 07:35:03;;;;;;;2.50;1.50;;;;;;;34.00;26.96;98497.38;5053118;28;20459;-75
2022/07/15 07:37:34;;;;;;;1.33;1.23;;;;;;;34.93;26.27;98472.72;5089109;28;20089;-73
2022/07/15 07:39:59;;;;;;;6.00;1.40;;;;;;;35.84;25.75;98483.91;5089764;28;20177;-72
2022/07/15 07:42:27;;;;;;;6.05;1.35;;;;;;;36.58;23.75;98489.53;5055634;28;20131;-75
2022/07/15 07:44:52;;;;;;;3.25;1.25;;;;;;;37.58;22.88;98476.97;5107221;28;20048;-71
2022/07/15 07:47:20;;;;;;;5.15;1.30;;;;;;;38.59;21.15;98490.19;5089205;28;20384;-74
2022/07/15 07:49:46;;;;;;;3.38;1.20;;;;;;;39.99;19.71;98482.47;5091095;28;20039;-72
2022/07/15 07:52:12;;;;;;;1.10;1.00;;;;;;;41.29;19.11;98483.75;5074614;28;20113;-71
2022/07/15 07:54:37;;;;;;;1.85;1.17;;;;;;;40.88;19.18;98482.22;5090548;28;20632;-73
2022/07/15 07:57:04;;;;;;;1.05;0.95;;;;;;;39.95;19.50;98476.06;5072874;28;20046;-71
2022/07/15 07:59:30;;;;;;;2.00;0.98;;;;;;;38.46;20.58;98479.59;5074836;28;20054;-72
2022/07/15 08:01:56;;;;;;;2.67;1.10;;;;;;;36.81;20.99;98462.88;5074718;28;20623;-74
2022/07/15 08:04:22;;;;;;;3.15;1.00;;;;;;;35.97;22.61;98457.81;5042423;28;20067;-73
2022/07/15 08:06:48;;;;;;;6.28;1.30;;;;;;;35.01;22.99;98460.75;5076890;28;20056;-72
2022/07/15 08:09:14;;;;;;;2.95;1.17;;;;;;;36.96;21.91;98475.13;5075691;28;20073;-72
2022/07/15 08:11:40;;;;;;;4.07;1.20;;;;;;;39.12;19.91;98476.44;5077089;28;20514;-74
2022/07/15 08:14:06;;;;;;;4.10;1.20;;;;;;;41.05;17.23;98464.88;5079309;28;20049;-74
2022/07/15 08:16:35;;;;;;;2.50;1.10;;;;;;;43.08;14.42;98476.84;5061388;28;20127;-73
2022/07/15 08:19:01;;;;;;;1.00;0.90;;;;;;;44.58;15.40;98465.56;5058115;28;20644;-72
2022/07/15 08:21:26;;;;;;;2.00;1.00;;;;;;;44.34;13.92;98452.53;5073528;28;20557;-73
2022/07/15 08:23:54;;;;;;;2.03;1.08;;;;;;;44.99;12.96;98468.47;5091296;28;20051;-75
2022/07/15 08:26:23;;;;;;;2.33;1.00;;;;;;;44.70;12.30;98476.31;5061693;28;20130;-75
2022/07/15 08:28:50;;;;;;;2.05;1.20;;;;;;;42.59;13.36;98484.41;5095784;28;20065;-74
2022/07/15 08:31:16;;;;;;;1.38;0.90;;;;;;;42.89;13.77;98490.41;5060895;28;20047;-74
2022/07/15 08:33:42;;;;;;;1.98;1.20;;;;;;;43.68;12.78;98498.34;5063100;27;20039;-73
2022/07/15 08:36:09;;;;;;;1.70;1.00;;;;;;;41.87;13.74;98494.88;5115654;27;20509;-73
2022/07/15 08:38:35;;;;;;;2.33;0.95;;;;;;;43.78;12.85;98506.72;5080940;27;20074;-73
2022/07/15 08:41:01;;;;;;;2.22;1.30;;;;;;;45.12;11.64;98517.25;5098184;27;20119;-74
2022/07/15 08:43:27;;;;;;;1.33;1.05;;;;;;;44.82;11.68;98498.25;5075483;28;20071;-77
2022/07/15 08:45:53;;;;;;;3.10;1.10;;;;;;;45.38;11.61;98491.38;5044590;28;20070;-74
2022/07/15 08:48:24;;;;;;;1.77;1.00;;;;;;;46.06;11.12;98505.03;5062267;27;20120;-73
2022/07/15 08:50:50;;;;;;;2.72;0.90;;;;;;;45.72;10.05;98501.44;5114256;27;20066;-73
2022/07/15 08:53:17;;;;;;;2.65;1.00;;;;;;;46.52;9.99;98509.31;5076158;28;20535;-73
2022/07/15 08:55:43;;;;;;;3.15;1.00;;;;;;;45.79;10.44;98503.38;5076529;28;20043;-72
2022/07/15 08:58:09;;;;;;;2.03;1.10;;;;;;;46.37;9.40;98503.06;5059496;28;20059;-73
2022/07/15 09:00:35;;;;;;;2.85;1.10;;;;;;;46.72;9.62;98502.56;5060723;28;20046;-73
2022/07/15 09:03:04;;;;;;;2.67;1.05;;;;;;;44.55;10.97;98498.00;5093776;28;20406;-74
2022/07/15 09:05:35;;;;;;;3.45;1.13;;;;;;;45.12;11.97;98494.81;5077506;28;20039;-73
2022/07/15 09:08:07;;;;;;;1.70;1.10;;;;;;;47.38;10.19;98516.75;5076945;28;20038;-73
2022/07/15 09:10:42;;;;;;;3.90;1.30;;;;;;;49.55;8.14;98508.31;5059960;28;20055;-73
2022/07/15 09:13:08;;;;;;;3.58;1.08;;;;;;;47.52;9.78;98517.28;5076316;28;20126;-72
2022/07/15 09:15:39;;;;;;;1.73;1.15;;;;;;;46.70;10.07;98512.63;5076652;28;20036;-73
2022/07/15 09:18:14;;;;;;;2.15;1.20;;;;;;;47.78;8.92;98528.91;5112311;27;20050;-73
2022/07/15 09:20:41;;;;;;;1.10;0.82;;;;;;;46.07;9.87;98508.66;5096743;27;20387;-72
2022/07/15 09:23:16;;;;;;;2.33;0.98;;;;;;;43.72;11.74;98508.34;5097656;27;20068;-73
2022/07/15 09:25:42;;;;;;;2.33;1.27;;;;;;;42.62;11.96;98489.19;5064765;27;20409;-72
2022/07/15 09:28:08;;;;;;;1.88;1.10;;;;;;;44.56;10.75;98510.78;5077157;28;20040;-72
2022/07/15 09:36:20;;;;;;;2.10;1.23;;;;;;;46.84;9.11;98501.19;5095147;27;20058;-72
2022/07/15 09:38:53;;;;;;;2.35;1.30;;;;;;;47.20;9.62;98508.63;5062105;28;20499;-71
2022/07/15 09:41:27;;;;;;;3.33;1.10;;;;;;;46.81;9.21;98522.47;5077683;28;20046;-72
2022/07/15 09:43:57;;;;;;;2.83;1.05;;;;;;;45.56;9.90;98495.59;5111673;28;20495;-72
2022/07/15 09:46:26;;;;;;;2.03;0.90;;;;;;;46.27;9.29;98498.41;5097055;27;20134;-72
2022/07/15 09:48:53;;;;;;;1.23;0.90;;;;;;;47.27;8.95;98513.34;5113149;27;20041;-71
2022/07/15 09:51:20;;;;;;;4.53;1.10;;;;;;;47.55;8.68;98505.16;5079185;27;20078;-71
2022/07/15 09:53:46;;;;;;;1.27;1.10;;;;;;;45.97;9.48;98496.34;5112606;27;20043;-71
2022/07/15 09:56:15;;;;;;;4.15;1.17;;;;;;;44.81;10.34;98493.81;5130075;27;20548;-70
2022/07/15 09:58:42;;;;;;;2.03;1.10;;;;;;;44.22;10.59;98492.97;5096912;27;20040;-71
2022/07/15 10:01:09;;;;;;;5.45;1.00;;;;;;;42.59;12.10;98495.56;5096567;27;20051;-73
2022/07/15 10:03:36;;;;;;;3.15;1.20;;;;;;;42.26;11.99;98495.88;5131867;27;20142;-72
2022/07/15 10:06:03;;;;;;;5.00;1.10;;;;;;;43.70;10.94;98491.19;5094654;27;20051;-72
2022/07/15 10:08:31;;;;;;;2.30;1.10;;;;;;;41.98;11.46;98479.03;5111540;28;20053;-74
2022/07/15 10:10:57;;;;;;;4.50;1.42;;;;;;;39.89;13.15;98474.78;5059992;28;20055;-73
2022/07/15 10:13:42;;;;;;;6.10;1.38;;;;;;;38.31;15.90;98497.16;5060800;28;20039;-72
2022/07/15 10:16:11;;;;;;;2.85;1.08;;;;;;;38.11;16.15;98493.59;5074766;28;20047;-71
2022/07/15 10:19:02;;;;;;;2.92;1.23;;;;;;;38.45;15.90;98502.97;5096086;28;20043;-70
2022/07/15 10:21:38;;;;;;;4.00;1.30;;;;;;;38.25;16.36;98502.22;5089455;28;20190;-71
2022/07/15 10:24:26;;;;;;;6.18;1.25;;;;;;;38.23;15.89;98525.91;5093409;28;20070;-72
2022/07/15 10:27:14;;;;;;;2.25;1.25;;;;;;;37.36;17.05;98506.16;5090045;28;20047;-72
2022/07/15 10:29:40;;;;;;;3.50;1.05;;;;;;;36.84;17.42;98500.13;5092762;28;20092;-71
2022/07/15 10:32:06;;;;;;;8.48;1.40;;;;;;;36.57;17.45;98498.19;5096464;27;20043;-71
2022/07/15 10:34:36;;;;;;;4.60;2.00;;;;;;;36.94;17.26;98505.09;5095366;27;20046;-70
2022/07/15 10:37:10;;;;;;;3.85;1.30;;;;;;;36.75;17.36;98507.78;5078578;27;20856;-70
2022/07/15 10:40:08;;;;;;;2.78;1.40;;;;;;;36.97;17.58;98501.63;5112225;27;20490;-71
2022/07/15 10:42:57;;;;;;;2.70;1.15;;;;;;;38.61;15.95;98514.81;5089237;27;20487;-71
2022/07/15 10:45:23;;;;;;;2.97;1.38;;;;;;;38.46;15.87;98499.84;5124188;27;20043;-72
2022/07/15 10:48:26;;;;;;;5.15;1.20;;;;;;;37.63;16.60;98515.50;5074502;28;20479;-71
2022/07/15 10:50:52;;;;;;;3.17;1.20;;;;;;;36.70;17.09;98499.72;5088423;27;20418;-70
2022/07/15 10:53:21;;;;;;;3.40;1.45;;;;;;;37.61;16.75;98502.00;5094668;27;20051;-71
2022/07/15 10:55:52;;;;;;;2.50;1.13;;;;;;;38.39;16.15;98510.00;5130485;27;20858;-72
2022/07/15 10:58:18;;;;;;;3.35;1.40;;;;;;;38.62;15.78;98514.44;5130693;27;20058;-72
2022/07/15 11:00:44;;;;;;;3.75;1.50;;;;;;;39.80;14.43;98518.72;5061372;27;20039;-73
2022/07/15 11:03:16;;;;;;;2.08;1.42;;;;;;;41.50;12.77;98504.25;5077745;27;20383;-72
2022/07/15 11:05:48;;;;;;;3.42;1.52;;;;;;;41.14;12.74;98513.53;5112654;27;20050;-74
2022/07/15 11:08:37;;;;;;;2.47;1.27;;;;;;;40.77;12.96;98509.19;5095743;27;20095;-72
2022/07/15 11:11:15;;;;;;;5.68;1.42;;;;;;;40.48;14.24;98507.28;5094116;27;20042;-71
2022/07/15 11:13:43;;;;;;;4.80;1.10;;;;;;;39.76;15.12;98517.91;5093076;27;20050;-71
2022/07/15 11:16:14;;;;;;;4.10;1.35;;;;;;;37.55;16.31;98503.41;5113028;27;20039;-73
2022/07/15 11:18:57;;;;;;;2.45;1.02;;;;;;;36.74;17.15;98500.63;5095447;27;20039;-73
2022/07/15 11:21:25;;;;;;;3.97;1.25;;;;;;;35.93;18.13;98501.16;5112276;27;20051;-73
2022/07/15 11:23:53;;;;;;;20.88;1.42;;;;;;;36.04;18.25;98510.56;5059456;27;20100;-73
2022/07/15 11:26:19;;;;;;;3.45;1.50;;;;;;;35.11;19.21;98501.69;5108915;27;20455;-73
2022/07/15 11:28:57;;;;;;;8.98;1.30;;;;;;;35.02;19.57;98512.84;5094330;28;20042;-71
2022/07/15 11:31:23;;;;;;;4.57;1.27;;;;;;;34.72;19.94;98507.88;5095609;28;20096;-73
2022/07/15 11:33:53;;;;;;;2.13;1.52;;;;;;;34.94;19.42;98524.81;5062183;28;20091;-70
2022/07/15 11:36:23;;;;;;;2.60;1.42;;;;;;;35.08;19.46;98525.28;5113637;28;20043;-76
2022/07/15 11:38:49;;;;;;;4.05;1.45;;;;;;;35.10;19.27;98533.22;5086545;28;20127;-71
2022/07/15 11:44:32;;;;;;;4.40;1.40;;;;;;;34.43;19.82;98521.81;5056404;28;20065;-71
2022/07/15 11:47:00;;;;;;;3.97;1.48;;;;;;;35.10;20.08;98498.16;5060855;28;20039;-70
2022/07/15 11:49:39;;;;;;;4.05;1.40;;;;;;;35.26;20.06;98510.06;5098039;28;20081;-72
2022/07/15 11:52:07;;;;;;;2.13;1.35;;;;;;;35.05;20.07;98520.44;5083031;28;20043;-71